Prospect Creek, Prospect Cree, AK

8:03 PM AKST on March 01, 2015 (GMT -0900)
APRSWXNET Jim River DOT AK US | Change Station
CLOSE
Current Station
Personal Weather Station
Location: Bettles Field, AK
Elevation: 852 ft
Nearby Weather Stations

Elev 852 ft 66.82 °N, 150.66 °W | Updated 41 minutes ago

Partly Cloudy
Partly Cloudy
-4 °F
Feels Like -4 °F
N
0
Wind Variable Wind from NE
Gusts 0.0 mph

Today
High -- | Low -- °F
--% Chance of Precip.
Yesterday
High -- | Low -- °F
Precip. -- in
8:17 AM 6:13 PM
Waxing Gibbous, 89% visible
Pressure 30.69 in
Visibility 10.0 miles
Clouds Few 12000 ft
Windchill -4 °F
Dew Point -14 °F
Humidity 62%
Rainfall -999.00 in
Snow Depth Not available.
UV 0 out of 12
Pollen Not available.
Air Quality Not available.
Flu Activity Not available.
METAR PABT 020453Z 36005KT 10SM FEW120 M19/M23 A3061 RMK AO2 SLP392 T11941233 PNO

More Conditions Fewer Conditions

Pressure 30.69 in
Visibility 10.0 miles
Clouds Few 12000 ft
Windchill -4 °F
Dew Point -14 °F
Humidity 62%
Rainfall -999.00 in
Snow Depth Not available.
UV 0 out of 12
Pollen Not available.
Air Quality Not available.
Flu Activity Not available.
METAR PABT 020453Z 36005KT 10SM FEW120 M19/M23 A3061 RMK AO2 SLP392 T11941233 PNO

More Conditions Fewer Conditions

10-Day Weather Forecast

Almanac

Astronomy

Mar. 01, 2015 Rise Set
Actual Time
Civil Twilight
Nautical Twilight
Astronomical Twilight
Moon
Length of Visible Light
Length of Day
Tomorrow will be .
, % of the Moon is Illuminated

Today's Extremes

State Highs State Lows

Community

WunderPhotos

Upload Photos

1,801,728 photos uploaded!

WunderBlogs® & News

Nearby

Air Quality

  Air Quality AQ Index Pollutant
Not available.

Snow Depth

Station Depth Elevation

Earthquake Activity

City Distance Mag. Time & Date
Minimum magnitude displayed is 2.5.

Coastal Water Temperatures

Place Temperature

Nearby Weather Stations